sensor_id;sensor_type;location;lat;lon;timestamp;temperature;humidity
19908;DHT22;10116;53.112;7.356;2023-04-01T00:00:53;25.20;53.20
19908;DHT22;10116;53.112;7.356;2023-04-01T00:03:20;25.20;53.60
19908;DHT22;10116;53.112;7.356;2023-04-01T00:05:47;25.20;53.80
19908;DHT22;10116;53.112;7.356;2023-04-01T00:08:13;25.20;53.50
19908;DHT22;10116;53.112;7.356;2023-04-01T00:10:38;25.20;54.00
19908;DHT22;10116;53.112;7.356;2023-04-01T00:13:04;25.20;53.90
19908;DHT22;10116;53.112;7.356;2023-04-01T00:15:30;25.20;53.60
19908;DHT22;10116;53.112;7.356;2023-04-01T00:17:56;25.20;53.90
19908;DHT22;10116;53.112;7.356;2023-04-01T00:20:22;25.20;54.40
19908;DHT22;10116;53.112;7.356;2023-04-01T00:22:48;25.10;53.80
19908;DHT22;10116;53.112;7.356;2023-04-01T00:25:16;25.10;54.00
19908;DHT22;10116;53.112;7.356;2023-04-01T00:27:41;25.20;54.40
19908;DHT22;10116;53.112;7.356;2023-04-01T00:30:08;25.10;56.60
19908;DHT22;10116;53.112;7.356;2023-04-01T00:32:34;25.10;53.60
19908;DHT22;10116;53.112;7.356;2023-04-01T00:35:01;25.10;53.60
19908;DHT22;10116;53.112;7.356;2023-04-01T00:37:27;25.10;53.80
19908;DHT22;10116;53.112;7.356;2023-04-01T00:39:53;25.10;53.30
19908;DHT22;10116;53.112;7.356;2023-04-01T00:42:19;25.10;53.80
19908;DHT22;10116;53.112;7.356;2023-04-01T00:44:54;25.10;53.50
19908;DHT22;10116;53.112;7.356;2023-04-01T00:47:22;25.10;53.60
19908;DHT22;10116;53.112;7.356;2023-04-01T00:49:51;25.10;53.70
19908;DHT22;10116;53.112;7.356;2023-04-01T00:52:20;25.10;54.10
19908;DHT22;10116;53.112;7.356;2023-04-01T00:54:50;25.10;53.40
19908;DHT22;10116;53.112;7.356;2023-04-01T00:57:34;25.10;53.70
19908;DHT22;10116;53.112;7.356;2023-04-01T01:00:05;25.10;53.80
19908;DHT22;10116;53.112;7.356;2023-04-01T01:02:33;25.10;53.60
19908;DHT22;10116;53.112;7.356;2023-04-01T01:04:59;25.10;53.60
19908;DHT22;10116;53.112;7.356;2023-04-01T01:15:25;25.10;54.00
19908;DHT22;10116;53.112;7.356;2023-04-01T01:21:04;25.00;54.20
19908;DHT22;10116;53.112;7.356;2023-04-01T01:34:24;25.00;54.00
19908;DHT22;10116;53.112;7.356;2023-04-01T01:36:57;25.00;54.60
19908;DHT22;10116;53.112;7.356;2023-04-01T01:39:28;25.00;54.00
19908;DHT22;10116;53.112;7.356;2023-04-01T01:41:57;25.00;53.90
19908;DHT22;10116;53.112;7.356;2023-04-01T01:44:26;25.00;53.80
19908;DHT22;10116;53.112;7.356;2023-04-01T01:46:54;25.00;54.40
19908;DHT22;10116;53.112;7.356;2023-04-01T01:49:21;25.00;53.90
19908;DHT22;10116;53.112;7.356;2023-04-01T01:51:46;25.00;54.70
19908;DHT22;10116;53.112;7.356;2023-04-01T01:54:15;25.00;54.20
19908;DHT22;10116;53.112;7.356;2023-04-01T01:56:45;25.00;53.90
19908;DHT22;10116;53.112;7.356;2023-04-01T01:59:13;25.00;54.10
19908;DHT22;10116;53.112;7.356;2023-04-01T02:01:42;25.00;53.90
19908;DHT22;10116;53.112;7.356;2023-04-01T02:04:11;25.00;54.50
19908;DHT22;10116;53.112;7.356;2023-04-01T02:06:41;25.00;53.80
19908;DHT22;10116;53.112;7.356;2023-04-01T02:09:10;25.00;54.00
19908;DHT22;10116;53.112;7.356;2023-04-01T02:11:39;25.00;55.30
19908;DHT22;10116;53.112;7.356;2023-04-01T02:14:17;25.10;55.50
19908;DHT22;10116;53.112;7.356;2023-04-01T02:16:44;25.10;55.90
19908;DHT22;10116;53.112;7.356;2023-04-01T02:19:12;25.20;56.20
19908;DHT22;10116;53.112;7.356;2023-04-01T02:21:39;25.20;56.60
19908;DHT22;10116;53.112;7.356;2023-04-01T02:24:10;25.20;56.60
19908;DHT22;10116;53.112;7.356;2023-04-01T02:26:37;25.20;56.90
19908;DHT22;10116;53.112;7.356;2023-04-01T02:29:04;25.20;57.10
19908;DHT22;10116;53.112;7.356;2023-04-01T02:31:31;25.20;58.00
19908;DHT22;10116;53.112;7.356;2023-04-01T02:33:57;25.20;56.90
19908;DHT22;10116;53.112;7.356;2023-04-01T02:36:23;25.30;58.00
19908;DHT22;10116;53.112;7.356;2023-04-01T02:38:49;25.20;57.00
19908;DHT22;10116;53.112;7.356;2023-04-01T02:41:16;25.20;57.70
19908;DHT22;10116;53.112;7.356;2023-04-01T02:43:42;25.20;57.10
19908;DHT22;10116;53.112;7.356;2023-04-01T02:46:07;25.20;56.90
19908;DHT22;10116;53.112;7.356;2023-04-01T02:48:34;25.20;57.30
19908;DHT22;10116;53.112;7.356;2023-04-01T02:51:00;25.30;57.00
19908;DHT22;10116;53.112;7.356;2023-04-01T02:53:26;25.30;56.70
19908;DHT22;10116;53.112;7.356;2023-04-01T02:55:51;25.30;56.80
19908;DHT22;10116;53.112;7.356;2023-04-01T02:58:17;25.30;56.80
19908;DHT22;10116;53.112;7.356;2023-04-01T03:00:43;25.30;58.20
19908;DHT22;10116;53.112;7.356;2023-04-01T03:03:09;25.30;58.20
19908;DHT22;10116;53.112;7.356;2023-04-01T03:05:35;25.30;58.40
19908;DHT22;10116;53.112;7.356;2023-04-01T03:08:01;25.30;57.50
19908;DHT22;10116;53.112;7.356;2023-04-01T03:10:27;25.30;57.10
19908;DHT22;10116;53.112;7.356;2023-04-01T03:12:53;25.30;57.10
19908;DHT22;10116;53.112;7.356;2023-04-01T03:15:19;25.30;57.30
19908;DHT22;10116;53.112;7.356;2023-04-01T03:17:44;25.30;57.00
19908;DHT22;10116;53.112;7.356;2023-04-01T03:20:12;25.30;57.00
19908;DHT22;10116;53.112;7.356;2023-04-01T03:22:38;25.30;57.00
19908;DHT22;10116;53.112;7.356;2023-04-01T03:25:04;25.30;57.00
19908;DHT22;10116;53.112;7.356;2023-04-01T03:27:30;25.20;57.20
19908;DHT22;10116;53.112;7.356;2023-04-01T03:29:56;25.20;56.60
19908;DHT22;10116;53.112;7.356;2023-04-01T03:32:21;25.30;57.10
19908;DHT22;10116;53.112;7.356;2023-04-01T03:34:47;25.30;57.70
19908;DHT22;10116;53.112;7.356;2023-04-01T03:37:13;25.40;58.40
19908;DHT22;10116;53.112;7.356;2023-04-01T03:39:39;25.40;58.70
19908;DHT22;10116;53.112;7.356;2023-04-01T03:42:05;25.40;59.20
19908;DHT22;10116;53.112;7.356;2023-04-01T03:44:35;25.50;59.50
19908;DHT22;10116;53.112;7.356;2023-04-01T03:47:00;25.50;59.40
19908;DHT22;10116;53.112;7.356;2023-04-01T03:49:26;25.50;59.40
19908;DHT22;10116;53.112;7.356;2023-04-01T03:51:52;25.50;59.60
19908;DHT22;10116;53.112;7.356;2023-04-01T03:54:18;25.60;60.40
19908;DHT22;10116;53.112;7.356;2023-04-01T03:56:45;25.50;59.60
19908;DHT22;10116;53.112;7.356;2023-04-01T03:59:11;25.50;59.20
19908;DHT22;10116;53.112;7.356;2023-04-01T04:01:37;25.50;60.00
19908;DHT22;10116;53.112;7.356;2023-04-01T04:04:03;25.50;59.20
19908;DHT22;10116;53.112;7.356;2023-04-01T04:06:29;25.50;58.60
19908;DHT22;10116;53.112;7.356;2023-04-01T04:08:54;25.50;58.70
19908;DHT22;10116;53.112;7.356;2023-04-01T04:11:21;25.40;58.50
19908;DHT22;10116;53.112;7.356;2023-04-01T04:13:47;25.40;58.50
19908;DHT22;10116;53.112;7.356;2023-04-01T04:16:17;25.40;58.70
19908;DHT22;10116;53.112;7.356;2023-04-01T04:18:43;25.40;58.40
19908;DHT22;10116;53.112;7.356;2023-04-01T04:21:13;25.40;57.80
19908;DHT22;10116;53.112;7.356;2023-04-01T04:23:39;25.40;57.80
19908;DHT22;10116;53.112;7.356;2023-04-01T04:26:07;25.40;57.80
19908;DHT22;10116;53.112;7.356;2023-04-01T04:28:34;25.40;58.00
19908;DHT22;10116;53.112;7.356;2023-04-01T04:31:00;25.40;57.90
19908;DHT22;10116;53.112;7.356;2023-04-01T04:33:26;25.40;57.60
19908;DHT22;10116;53.112;7.356;2023-04-01T04:35:55;25.40;57.40
19908;DHT22;10116;53.112;7.356;2023-04-01T04:38:21;25.30;57.20
19908;DHT22;10116;53.112;7.356;2023-04-01T04:40:46;25.30;57.20
19908;DHT22;10116;53.112;7.356;2023-04-01T04:43:14;25.30;57.60
19908;DHT22;10116;53.112;7.356;2023-04-01T04:45:40;25.30;57.20
19908;DHT22;10116;53.112;7.356;2023-04-01T04:48:10;25.40;57.80
19908;DHT22;10116;53.112;7.356;2023-04-01T04:50:40;25.40;58.20
19908;DHT22;10116;53.112;7.356;2023-04-01T04:53:05;25.40;59.50
19908;DHT22;10116;53.112;7.356;2023-04-01T04:55:31;25.50;58.70
19908;DHT22;10116;53.112;7.356;2023-04-01T04:57:57;25.50;59.30
19908;DHT22;10116;53.112;7.356;2023-04-01T05:00:22;25.50;59.20
19908;DHT22;10116;53.112;7.356;2023-04-01T05:02:48;25.50;58.90
19908;DHT22;10116;53.112;7.356;2023-04-01T05:05:13;25.50;58.70
19908;DHT22;10116;53.112;7.356;2023-04-01T05:07:39;25.50;59.40
19908;DHT22;10116;53.112;7.356;2023-04-01T05:10:05;25.50;59.90
19908;DHT22;10116;53.112;7.356;2023-04-01T05:12:31;25.50;59.90
19908;DHT22;10116;53.112;7.356;2023-04-01T05:15:06;25.50;59.20
19908;DHT22;10116;53.112;7.356;2023-04-01T05:17:32;25.50;58.90
19908;DHT22;10116;53.112;7.356;2023-04-01T05:19:58;25.50;59.00
19908;DHT22;10116;53.112;7.356;2023-04-01T05:22:23;25.40;58.70
19908;DHT22;10116;53.112;7.356;2023-04-01T05:24:49;25.40;58.10
19908;DHT22;10116;53.112;7.356;2023-04-01T05:27:15;25.40;57.40
19908;DHT22;10116;53.112;7.356;2023-04-01T05:29:40;25.40;57.50
19908;DHT22;10116;53.112;7.356;2023-04-01T05:32:06;25.40;57.50
19908;DHT22;10116;53.112;7.356;2023-04-01T05:34:32;25.30;57.00
19908;DHT22;10116;53.112;7.356;2023-04-01T05:36:57;25.30;57.00
19908;DHT22;10116;53.112;7.356;2023-04-01T05:39:23;25.30;56.60
19908;DHT22;10116;53.112;7.356;2023-04-01T05:41:49;25.30;57.10
19908;DHT22;10116;53.112;7.356;2023-04-01T05:44:15;25.30;56.90
19908;DHT22;10116;53.112;7.356;2023-04-01T05:46:40;25.30;58.20
19908;DHT22;10116;53.112;7.356;2023-04-01T05:49:06;25.40;58.20
19908;DHT22;10116;53.112;7.356;2023-04-01T05:51:32;25.40;58.40
19908;DHT22;10116;53.112;7.356;2023-04-01T05:53:57;25.40;58.80
19908;DHT22;10116;53.112;7.356;2023-04-01T05:56:23;25.50;59.00
19908;DHT22;10116;53.112;7.356;2023-04-01T05:58:51;25.50;59.50
19908;DHT22;10116;53.112;7.356;2023-04-01T06:01:18;25.50;59.50
19908;DHT22;10116;53.112;7.356;2023-04-01T06:03:44;25.50;59.70
19908;DHT22;10116;53.112;7.356;2023-04-01T06:06:14;25.50;59.40
19908;DHT22;10116;53.112;7.356;2023-04-01T06:08:41;25.50;60.60
19908;DHT22;10116;53.112;7.356;2023-04-01T06:17:03;25.50;59.40
19908;DHT22;10116;53.112;7.356;2023-04-01T06:22:45;25.50;60.00
19908;DHT22;10116;53.112;7.356;2023-04-01T06:30:56;25.40;59.00
19908;DHT22;10116;53.112;7.356;2023-04-01T06:33:37;25.40;58.80
19908;DHT22;10116;53.112;7.356;2023-04-01T06:36:35;25.40;58.90
19908;DHT22;10116;53.112;7.356;2023-04-01T06:50:25;25.50;59.60
19908;DHT22;10116;53.112;7.356;2023-04-01T06:52:58;25.50;60.20
19908;DHT22;10116;53.112;7.356;2023-04-01T06:55:38;25.50;60.20
19908;DHT22;10116;53.112;7.356;2023-04-01T06:58:23;25.60;61.40
19908;DHT22;10116;53.112;7.356;2023-04-01T07:01:02;25.60;62.30
19908;DHT22;10116;53.112;7.356;2023-04-01T07:03:49;25.60;61.90
19908;DHT22;10116;53.112;7.356;2023-04-01T07:09:19;25.60;64.10
19908;DHT22;10116;53.112;7.356;2023-04-01T07:11:46;25.60;61.20
19908;DHT22;10116;53.112;7.356;2023-04-01T07:14:37;25.60;61.50
19908;DHT22;10116;53.112;7.356;2023-04-01T07:17:20;25.60;60.50
19908;DHT22;10116;53.112;7.356;2023-04-01T07:22:42;25.60;59.60
19908;DHT22;10116;53.112;7.356;2023-04-01T07:25:14;25.50;60.00
19908;DHT22;10116;53.112;7.356;2023-04-01T07:27:45;25.50;60.10
19908;DHT22;10116;53.112;7.356;2023-04-01T07:30:21;25.50;59.40
19908;DHT22;10116;53.112;7.356;2023-04-01T07:43:34;25.20;58.50
19908;DHT22;10116;53.112;7.356;2023-04-01T07:46:11;25.30;58.50
19908;DHT22;10116;53.112;7.356;2023-04-01T07:51:27;25.40;59.40
19908;DHT22;10116;53.112;7.356;2023-04-01T07:56:27;25.40;61.30
19908;DHT22;10116;53.112;7.356;2023-04-01T08:01:30;25.40;61.40
19908;DHT22;10116;53.112;7.356;2023-04-01T08:06:34;25.40;60.70
19908;DHT22;10116;53.112;7.356;2023-04-01T08:15:28;25.40;59.80
19908;DHT22;10116;53.112;7.356;2023-04-01T08:20:37;25.30;59.50
19908;DHT22;10116;53.112;7.356;2023-04-01T08:28:41;25.30;58.80
19908;DHT22;10116;53.112;7.356;2023-04-01T08:31:35;25.20;59.00
19908;DHT22;10116;53.112;7.356;2023-04-01T08:34:04;25.20;59.20
19908;DHT22;10116;53.112;7.356;2023-04-01T08:36:41;25.20;60.10
19908;DHT22;10116;53.112;7.356;2023-04-01T08:39:38;25.20;60.00
19908;DHT22;10116;53.112;7.356;2023-04-01T08:45:10;25.20;60.00
19908;DHT22;10116;53.112;7.356;2023-04-01T08:56:20;25.30;61.00
19908;DHT22;10116;53.112;7.356;2023-04-01T08:59:11;25.30;60.80
19908;DHT22;10116;53.112;7.356;2023-04-01T09:12:42;25.20;60.60
19908;DHT22;10116;53.112;7.356;2023-04-01T09:37:57;25.30;63.10
19908;DHT22;10116;53.112;7.356;2023-04-01T09:41:15;25.40;63.30
19908;DHT22;10116;53.112;7.356;2023-04-01T09:46:35;24.30;51.80
19908;DHT22;10116;53.112;7.356;2023-04-01T09:52:20;23.60;43.50
19908;DHT22;10116;53.112;7.356;2023-04-01T09:57:44;23.50;43.80
19908;DHT22;10116;53.112;7.356;2023-04-01T10:09:17;24.10;51.90
19908;DHT22;10116;53.112;7.356;2023-04-01T10:20:46;24.40;56.80
19908;DHT22;10116;53.112;7.356;2023-04-01T11:14:39;24.90;62.00
19908;DHT22;10116;53.112;7.356;2023-04-01T11:17:30;25.00;61.80
19908;DHT22;10116;53.112;7.356;2023-04-01T11:25:41;25.10;63.60
19908;DHT22;10116;53.112;7.356;2023-04-01T11:31:29;25.10;63.40
19908;DHT22;10116;53.112;7.356;2023-04-01T11:39:50;25.10;63.00
19908;DHT22;10116;53.112;7.356;2023-04-01T11:45:36;25.00;61.80
19908;DHT22;10116;53.112;7.356;2023-04-01T11:48:24;25.00;60.60
19908;DHT22;10116;53.112;7.356;2023-04-01T11:56:38;24.90;59.70
19908;DHT22;10116;53.112;7.356;2023-04-01T12:02:06;24.90;58.20
19908;DHT22;10116;53.112;7.356;2023-04-01T12:04:38;24.80;58.20
19908;DHT22;10116;53.112;7.356;2023-04-01T12:07:19;24.80;57.60
19908;DHT22;10116;53.112;7.356;2023-04-01T12:09:48;24.80;57.30
19908;DHT22;10116;53.112;7.356;2023-04-01T12:12:44;24.80;57.80
19908;DHT22;10116;53.112;7.356;2023-04-01T12:23:44;25.00;59.30
19908;DHT22;10116;53.112;7.356;2023-04-01T12:29:35;25.00;58.90
19908;DHT22;10116;53.112;7.356;2023-04-01T12:33:10;25.00;59.60
19908;DHT22;10116;53.112;7.356;2023-04-01T12:38:10;25.00;59.70
19908;DHT22;10116;53.112;7.356;2023-04-01T12:49:31;25.00;72.70
19908;DHT22;10116;53.112;7.356;2023-04-01T12:52:10;25.00;57.20
19908;DHT22;10116;53.112;7.356;2023-04-01T12:54:55;24.90;57.80
19908;DHT22;10116;53.112;7.356;2023-04-01T13:15:54;24.90;55.50
19908;DHT22;10116;53.112;7.356;2023-04-01T13:23:43;25.00;57.30
19908;DHT22;10116;53.112;7.356;2023-04-01T13:27:14;25.00;57.40
19908;DHT22;10116;53.112;7.356;2023-04-01T13:29:36;25.10;57.30
19908;DHT22;10116;53.112;7.356;2023-04-01T13:34:51;25.10;58.10
19908;DHT22;10116;53.112;7.356;2023-04-01T13:37:43;25.10;57.50
19908;DHT22;10116;53.112;7.356;2023-04-01T13:42:57;25.20;58.50
19908;DHT22;10116;53.112;7.356;2023-04-01T13:45:48;25.20;57.70
19908;DHT22;10116;53.112;7.356;2023-04-01T13:54:26;25.10;56.50
19908;DHT22;10116;53.112;7.356;2023-04-01T14:00:06;25.00;56.70
19908;DHT22;10116;53.112;7.356;2023-04-01T14:08:10;25.00;55.30
19908;DHT22;10116;53.112;7.356;2023-04-01T14:13:53;25.00;56.50
19908;DHT22;10116;53.112;7.356;2023-04-01T14:22:19;25.10;58.60
19908;DHT22;10116;53.112;7.356;2023-04-01T14:30:51;25.20;58.80
19908;DHT22;10116;53.112;7.356;2023-04-01T14:33:46;25.20;59.40
19908;DHT22;10116;53.112;7.356;2023-04-01T14:36:32;25.20;59.10
19908;DHT22;10116;53.112;7.356;2023-04-01T14:42:03;25.10;58.10
19908;DHT22;10116;53.112;7.356;2023-04-01T14:48:07;25.10;57.30
19908;DHT22;10116;53.112;7.356;2023-04-01T14:50:46;25.10;57.70
19908;DHT22;10116;53.112;7.356;2023-04-01T14:53:28;25.10;57.50
19908;DHT22;10116;53.112;7.356;2023-04-01T14:55:59;25.10;57.30
19908;DHT22;10116;53.112;7.356;2023-04-01T14:58:45;25.10;57.50
19908;DHT22;10116;53.112;7.356;2023-04-01T15:01:36;25.10;58.30
19908;DHT22;10116;53.112;7.356;2023-04-01T15:05:23;25.10;58.50
19908;DHT22;10116;53.112;7.356;2023-04-01T15:18:17;25.30;60.10
19908;DHT22;10116;53.112;7.356;2023-04-01T15:31:59;25.30;59.50
19908;DHT22;10116;53.112;7.356;2023-04-01T15:40:33;25.20;57.90
19908;DHT22;10116;53.112;7.356;2023-04-01T15:57:15;25.30;58.70
19908;DHT22;10116;53.112;7.356;2023-04-01T16:08:14;25.40;59.90
19908;DHT22;10116;53.112;7.356;2023-04-01T16:13:37;25.40;60.20
19908;DHT22;10116;53.112;7.356;2023-04-01T16:27:37;25.40;59.30
19908;DHT22;10116;53.112;7.356;2023-04-01T16:33:22;25.40;60.10
19908;DHT22;10116;53.112;7.356;2023-04-01T16:38:32;25.40;60.10
19908;DHT22;10116;53.112;7.356;2023-04-01T16:41:13;25.40;59.20
19908;DHT22;10116;53.112;7.356;2023-04-01T16:43:52;25.40;60.60
19908;DHT22;10116;53.112;7.356;2023-04-01T16:57:22;25.50;62.40
19908;DHT22;10116;53.112;7.356;2023-04-01T17:00:03;25.60;63.40
19908;DHT22;10116;53.112;7.356;2023-04-01T17:02:38;25.60;63.10
19908;DHT22;10116;53.112;7.356;2023-04-01T17:05:11;25.60;63.30
19908;DHT22;10116;53.112;7.356;2023-04-01T17:18:59;25.50;61.20
19908;DHT22;10116;53.112;7.356;2023-04-01T17:35:22;25.40;58.00
19908;DHT22;10116;53.112;7.356;2023-04-01T17:41:02;25.40;58.10
19908;DHT22;10116;53.112;7.356;2023-04-01T17:46:50;25.50;58.20
19908;DHT22;10116;53.112;7.356;2023-04-01T17:49:31;25.50;58.00
19908;DHT22;10116;53.112;7.356;2023-04-01T18:00:16;25.50;57.40
19908;DHT22;10116;53.112;7.356;2023-04-01T18:19:54;25.40;54.40
19908;DHT22;10116;53.112;7.356;2023-04-01T18:22:29;25.40;53.90
19908;DHT22;10116;53.112;7.356;2023-04-01T18:27:32;25.40;53.20
19908;DHT22;10116;53.112;7.356;2023-04-01T18:30:15;25.40;52.50
19908;DHT22;10116;53.112;7.356;2023-04-01T18:32:57;25.30;51.70
19908;DHT22;10116;53.112;7.356;2023-04-01T18:38:12;25.30;50.80
19908;DHT22;10116;53.112;7.356;2023-04-01T18:41:10;25.30;50.60
19908;DHT22;10116;53.112;7.356;2023-04-01T18:43:58;25.30;50.30
19908;DHT22;10116;53.112;7.356;2023-04-01T18:46:51;25.20;49.90
19908;DHT22;10116;53.112;7.356;2023-04-01T18:51:57;25.20;48.90
19908;DHT22;10116;53.112;7.356;2023-04-01T18:54:30;25.20;48.50
19908;DHT22;10116;53.112;7.356;2023-04-01T18:57:18;25.10;47.10
19908;DHT22;10116;53.112;7.356;2023-04-01T19:00:03;25.00;46.60
19908;DHT22;10116;53.112;7.356;2023-04-01T19:02:48;25.00;45.70
19908;DHT22;10116;53.112;7.356;2023-04-01T19:05:18;25.00;57.00
19908;DHT22;10116;53.112;7.356;2023-04-01T19:07:52;24.90;44.30
19908;DHT22;10116;53.112;7.356;2023-04-01T19:18:56;24.80;41.90
19908;DHT22;10116;53.112;7.356;2023-04-01T19:21:35;24.70;41.50
19908;DHT22;10116;53.112;7.356;2023-04-01T19:38:26;24.50;38.50
19908;DHT22;10116;53.112;7.356;2023-04-01T19:40:47;24.50;38.60
19908;DHT22;10116;53.112;7.356;2023-04-01T19:45:53;24.40;37.60
19908;DHT22;10116;53.112;7.356;2023-04-01T19:51:07;24.40;36.70
19908;DHT22;10116;53.112;7.356;2023-04-01T20:12:52;24.30;35.40
19908;DHT22;10116;53.112;7.356;2023-04-01T20:17:56;24.20;35.60
19908;DHT22;10116;53.112;7.356;2023-04-01T20:20:28;24.20;34.30
19908;DHT22;10116;53.112;7.356;2023-04-01T20:28:14;24.20;34.70
19908;DHT22;10116;53.112;7.356;2023-04-01T20:39:54;24.20;33.00
19908;DHT22;10116;53.112;7.356;2023-04-01T20:47:59;24.10;33.30
19908;DHT22;10116;53.112;7.356;2023-04-01T20:50:50;24.10;33.20
19908;DHT22;10116;53.112;7.356;2023-04-01T20:56:32;24.20;34.00
19908;DHT22;10116;53.112;7.356;2023-04-01T21:07:52;24.20;33.10
19908;DHT22;10116;53.112;7.356;2023-04-01T21:10:40;24.10;32.80
19908;DHT22;10116;53.112;7.356;2023-04-01T21:13:20;24.10;32.60
19908;DHT22;10116;53.112;7.356;2023-04-01T21:19:22;24.10;32.20
19908;DHT22;10116;53.112;7.356;2023-04-01T21:21:38;24.10;31.90
19908;DHT22;10116;53.112;7.356;2023-04-01T21:45:22;24.10;31.40
19908;DHT22;10116;53.112;7.356;2023-04-01T21:48:15;24.00;31.10
19908;DHT22;10116;53.112;7.356;2023-04-01T21:51:07;24.10;30.80
19908;DHT22;10116;53.112;7.356;2023-04-01T22:07:57;24.20;31.80
19908;DHT22;10116;53.112;7.356;2023-04-01T22:11:04;24.20;31.90
19908;DHT22;10116;53.112;7.356;2023-04-01T22:13:41;24.30;31.90
19908;DHT22;10116;53.112;7.356;2023-04-01T22:27:55;24.30;31.80
19908;DHT22;10116;53.112;7.356;2023-04-01T22:41:44;24.30;30.60
19908;DHT22;10116;53.112;7.356;2023-04-01T22:45:05;24.30;30.40
19908;DHT22;10116;53.112;7.356;2023-04-01T22:47:29;24.30;30.50
19908;DHT22;10116;53.112;7.356;2023-04-01T22:55:50;24.30;30.80
19908;DHT22;10116;53.112;7.356;2023-04-01T22:58:21;24.30;30.00
19908;DHT22;10116;53.112;7.356;2023-04-01T23:01:01;24.30;29.70
19908;DHT22;10116;53.112;7.356;2023-04-01T23:03:33;24.30;29.50
19908;DHT22;10116;53.112;7.356;2023-04-01T23:06:02;24.30;29.80
19908;DHT22;10116;53.112;7.356;2023-04-01T23:08:50;24.30;29.40
19908;DHT22;10116;53.112;7.356;2023-04-01T23:11:26;24.30;29.00
19908;DHT22;10116;53.112;7.356;2023-04-01T23:19:42;24.30;28.90
19908;DHT22;10116;53.112;7.356;2023-04-01T23:22:26;24.30;28.90
19908;DHT22;10116;53.112;7.356;2023-04-01T23:25:46;24.30;28.60
19908;DHT22;10116;53.112;7.356;2023-04-01T23:28:15;24.20;28.60
19908;DHT22;10116;53.112;7.356;2023-04-01T23:38:36;24.20;29.20
19908;DHT22;10116;53.112;7.356;2023-04-01T23:41:03;24.20;28.60
19908;DHT22;10116;53.112;7.356;2023-04-01T23:43:36;24.20;28.60
19908;DHT22;10116;53.112;7.356;2023-04-01T23:46:04;24.30;28.60
19908;DHT22;10116;53.112;7.356;2023-04-01T23:48:36;24.30;28.70
19908;DHT22;10116;53.112;7.356;2023-04-01T23:51:03;24.30;28.70
19908;DHT22;10116;53.112;7.356;2023-04-01T23:53:33;24.30;29.10
19908;DHT22;10116;53.112;7.356;2023-04-01T23:56:01;24.30;28.70
19908;DHT22;10116;53.112;7.356;2023-04-01T23:58:38;24.20;29.20
